createdAt,value
2019-02-23T00:02:12.128Z,20.73
2019-02-23T00:04:38.570Z,19.37
2019-02-23T00:07:04.996Z,19.20
2019-02-23T00:09:31.411Z,19.73
2019-02-23T00:11:57.833Z,19.90
2019-02-23T00:14:24.257Z,19.67
2019-02-23T00:16:50.714Z,19.83
2019-02-23T00:19:24.443Z,20.40
2019-02-23T00:21:45.468Z,20.30
2019-02-23T00:24:12.048Z,20.13
2019-02-23T00:26:38.517Z,20.83
2019-02-23T00:29:04.934Z,20.57
2019-02-23T00:31:31.355Z,19.90
2019-02-23T00:33:57.822Z,20.30
2019-02-23T00:36:24.382Z,20.97
2019-02-23T00:38:50.804Z,19.17
2019-02-23T00:41:17.227Z,20.13
2019-02-23T00:43:43.650Z,21.43
2019-02-23T00:46:10.101Z,19.60
2019-02-23T00:48:36.523Z,20.63
2019-02-23T00:51:02.949Z,20.83
2019-02-23T00:53:29.364Z,20.30
2019-02-23T00:55:55.862Z,20.47
2019-02-23T00:58:22.283Z,21.53
2019-02-23T01:00:48.705Z,19.23
2019-02-23T01:03:15.221Z,20.13
2019-02-23T01:05:42.018Z,21.00
2019-02-23T01:08:08.924Z,20.77
2019-02-23T01:10:35.759Z,21.33
2019-02-23T01:13:02.548Z,21.07
2019-02-23T01:15:29.029Z,19.83
2019-02-23T01:17:55.490Z,21.33
2019-02-23T01:20:22.035Z,21.13
2019-02-23T01:22:48.458Z,20.23
2019-02-23T01:25:14.969Z,20.03
2019-02-23T01:27:41.460Z,20.77
2019-02-23T01:30:09.078Z,21.87
2019-02-23T01:32:35.598Z,21.40
2019-02-23T01:35:02.126Z,19.90
2019-02-23T01:37:28.630Z,17.23
2019-02-23T01:39:55.046Z,16.53
2019-02-23T01:42:21.470Z,18.73
2019-02-23T01:44:47.979Z,17.77
2019-02-23T01:47:14.407Z,20.43
2019-02-23T01:49:40.925Z,19.87
2019-02-23T01:52:07.344Z,19.80
2019-02-23T01:54:33.913Z,20.43
2019-02-23T01:57:00.640Z,19.53
2019-02-23T01:59:27.127Z,19.13
2019-02-23T02:01:53.545Z,18.60
2019-02-23T02:04:19.961Z,19.20
2019-02-23T02:06:46.380Z,19.70
2019-02-23T02:09:12.901Z,17.90
2019-02-23T02:11:39.423Z,20.10
2019-02-23T02:14:06.145Z,19.90
2019-02-23T02:16:32.842Z,21.07
2019-02-23T02:18:59.323Z,21.47
2019-02-23T02:21:25.743Z,20.47
2019-02-23T02:23:52.166Z,21.83
2019-02-23T02:26:18.700Z,21.80
2019-02-23T02:28:45.109Z,20.80
2019-02-23T02:31:11.564Z,20.70
2019-02-23T02:34:04.279Z,21.80
2019-02-23T02:36:30.851Z,21.87
2019-02-23T02:38:57.271Z,21.50
2019-02-23T02:41:23.692Z,22.83
2019-02-23T02:43:50.313Z,22.47
2019-02-23T02:46:16.773Z,22.83
2019-02-23T02:48:43.182Z,20.33
2019-02-23T02:51:09.603Z,21.43
2019-02-23T02:53:36.026Z,21.47
2019-02-23T02:56:02.515Z,21.23
2019-02-23T02:58:28.934Z,22.13
2019-02-23T03:00:55.414Z,21.60
2019-02-23T03:03:21.839Z,23.73
2019-02-23T03:05:48.338Z,23.90
2019-02-23T03:08:14.764Z,22.57
2019-02-23T03:10:41.186Z,22.93
2019-02-23T03:13:07.607Z,22.97
2019-02-23T03:15:34.044Z,22.47
2019-02-23T03:18:00.555Z,22.07
2019-02-23T03:20:36.348Z,20.87
2019-02-23T03:22:55.310Z,22.87
2019-02-23T03:25:21.767Z,22.57
2019-02-23T03:27:48.184Z,23.20
2019-02-23T03:30:14.721Z,24.07
2019-02-23T03:32:41.275Z,21.87
2019-02-23T03:35:07.993Z,23.03
2019-02-23T03:37:34.484Z,22.70
2019-02-23T03:40:00.913Z,21.83
2019-02-23T03:42:27.336Z,23.67
2019-02-23T03:44:53.841Z,24.70
2019-02-23T03:47:20.303Z,22.90
2019-02-23T03:49:46.730Z,24.03
2019-02-23T03:52:13.154Z,22.83
2019-02-23T03:54:39.877Z,23.17
2019-02-23T03:57:06.395Z,23.40
2019-02-23T03:59:32.812Z,23.93
2019-02-23T04:01:59.319Z,22.50
2019-02-23T04:04:25.738Z,22.60
2019-02-23T04:06:52.157Z,22.20
2019-02-23T04:09:18.651Z,24.40
2019-02-23T04:11:45.100Z,23.80
2019-02-23T04:14:11.523Z,23.43
2019-02-23T04:16:38.093Z,24.67
2019-02-23T04:19:04.550Z,24.23
2019-02-23T04:21:30.968Z,24.07
2019-02-23T04:23:57.391Z,25.43
2019-02-23T04:26:23.924Z,23.10
2019-02-23T04:28:50.341Z,22.93
2019-02-23T04:31:16.861Z,24.23
2019-02-23T04:33:43.321Z,24.30
2019-02-23T04:36:09.983Z,24.20
2019-02-23T04:38:36.453Z,24.30
2019-02-23T04:41:02.972Z,24.40
2019-02-23T04:43:29.506Z,25.60
2019-02-23T04:45:56.009Z,19.57
2019-02-23T04:48:22.439Z,18.93
2019-02-23T04:50:48.873Z,17.70
2019-02-23T04:53:15.292Z,17.80
2019-02-23T04:55:41.746Z,17.57
2019-02-23T04:58:08.163Z,24.23
2019-02-23T05:00:34.595Z,20.43
2019-02-23T05:03:01.060Z,22.07
2019-02-23T05:05:27.774Z,23.00
2019-02-23T05:07:54.245Z,21.30
2019-02-23T05:10:20.665Z,20.43
2019-02-23T05:12:47.083Z,20.67
2019-02-23T05:15:13.524Z,19.13
2019-02-23T05:17:39.952Z,18.77
2019-02-23T05:20:06.751Z,20.23
2019-02-23T05:22:33.169Z,21.27
2019-02-23T05:24:59.678Z,22.73
2019-02-23T05:27:26.086Z,23.70
2019-02-23T05:29:52.524Z,23.60
2019-02-23T05:32:18.942Z,24.53
2019-02-23T05:34:45.396Z,24.50
2019-02-23T05:37:11.886Z,25.03
2019-02-23T05:39:38.307Z,22.73
2019-02-23T05:42:04.814Z,23.63
2019-02-23T05:44:31.339Z,25.33
2019-02-23T05:46:57.872Z,23.63
2019-02-23T05:49:24.285Z,23.90
2019-02-23T05:51:50.826Z,25.03
2019-02-23T05:54:17.254Z,25.27
2019-02-23T05:56:43.691Z,24.33
2019-02-23T05:59:10.123Z,23.53
2019-02-23T06:01:36.555Z,23.70
2019-02-23T06:04:03.088Z,23.37
2019-02-23T06:06:29.668Z,22.83
2019-02-23T06:08:56.123Z,23.70
2019-02-23T06:11:22.546Z,16.77
2019-02-23T06:13:48.965Z,13.57
2019-02-23T06:16:15.487Z,11.77
2019-02-23T06:18:41.911Z,11.70
2019-02-23T06:21:08.374Z,11.93
2019-02-23T06:23:34.804Z,13.20
2019-02-23T06:26:01.264Z,12.33
2019-02-23T06:28:27.669Z,13.10
2019-02-23T06:30:54.090Z,12.70
2019-02-23T06:33:20.530Z,12.97
2019-02-23T06:35:46.951Z,13.13
2019-02-23T06:38:13.441Z,11.47
2019-02-23T06:40:39.885Z,12.60
2019-02-23T06:43:06.319Z,12.80
2019-02-23T06:45:32.779Z,12.67
2019-02-23T06:47:59.223Z,12.07
2019-02-23T06:50:25.651Z,12.43
2019-02-23T06:52:52.076Z,12.63
2019-02-23T06:55:18.522Z,12.67
2019-02-23T06:57:44.953Z,12.90
2019-02-23T07:00:13.586Z,14.30
2019-02-23T07:02:40.118Z,12.37
2019-02-23T07:05:06.633Z,11.10
2019-02-23T07:07:33.059Z,12.23
2019-02-23T07:09:59.682Z,12.33
2019-02-23T07:12:26.120Z,11.43
2019-02-23T07:14:52.656Z,13.10
2019-02-23T07:17:19.073Z,13.33
2019-02-23T07:19:45.499Z,15.83
2019-02-23T07:22:15.466Z,14.73
2019-02-23T07:24:40.347Z,11.97
2019-02-23T07:27:06.771Z,12.67
2019-02-23T07:29:33.218Z,12.23
2019-02-23T07:31:59.650Z,11.77
2019-02-23T07:34:26.074Z,12.93
2019-02-23T07:36:52.498Z,11.87
2019-02-23T07:39:19.027Z,12.70
2019-02-23T07:41:45.484Z,10.50
2019-02-23T07:44:11.905Z,11.17
2019-02-23T07:46:38.425Z,11.07
2019-02-23T07:49:04.899Z,12.10
2019-02-23T07:51:31.321Z,11.97
2019-02-23T07:53:57.782Z,11.53
2019-02-23T07:56:24.282Z,10.83
2019-02-23T07:58:50.722Z,11.63
2019-02-23T08:01:38.983Z,11.50
2019-02-23T08:03:53.198Z,11.30
2019-02-23T08:06:19.795Z,11.80
2019-02-23T08:08:46.478Z,12.50
2019-02-23T08:11:12.960Z,12.20
2019-02-23T08:13:40.706Z,13.33
2019-02-23T08:16:07.550Z,15.73
2019-02-23T08:18:34.075Z,14.27
2019-02-23T08:21:00.513Z,15.50
2019-02-23T08:23:27.034Z,16.33
2019-02-23T08:25:53.563Z,17.70
2019-02-23T08:28:21.919Z,17.43
2019-02-23T08:30:48.340Z,18.83
2019-02-23T08:33:14.758Z,19.77
2019-02-23T08:35:41.266Z,19.63
2019-02-23T08:38:07.743Z,19.93
2019-02-23T08:40:34.190Z,20.50
2019-02-23T08:43:00.609Z,23.00
2019-02-23T08:45:27.238Z,23.50
2019-02-23T08:47:56.283Z,20.90
2019-02-23T08:50:22.065Z,19.97
2019-02-23T08:52:50.327Z,21.30
2019-02-23T08:55:16.932Z,21.03
2019-02-23T08:57:43.358Z,21.57
2019-02-23T09:00:15.723Z,22.20
2019-02-23T09:02:42.241Z,23.03
2019-02-23T09:05:09.798Z,20.30
2019-02-23T09:07:36.292Z,20.73
2019-02-23T09:10:04.116Z,19.87
2019-02-23T09:12:30.538Z,21.43
2019-02-23T09:14:56.983Z,20.63
2019-02-23T09:17:23.481Z,21.37
2019-02-23T09:19:50.016Z,22.07
2019-02-23T09:22:16.438Z,22.10
2019-02-23T09:24:43.002Z,21.43
2019-02-23T09:27:09.428Z,22.00
2019-02-23T09:29:35.861Z,21.13
2019-02-23T09:32:02.281Z,21.13
2019-02-23T09:34:28.693Z,20.87
2019-02-23T09:36:55.122Z,21.60
2019-02-23T09:39:21.541Z,20.47
2019-02-23T09:41:47.962Z,20.70
2019-02-23T09:44:14.435Z,20.63
2019-02-23T09:46:40.926Z,18.83
2019-02-23T09:49:07.382Z,20.83
2019-02-23T09:51:33.814Z,21.50
2019-02-23T09:54:00.254Z,21.00
2019-02-23T09:56:27.683Z,20.17
2019-02-23T09:58:54.117Z,20.53
2019-02-23T10:01:20.541Z,20.13
2019-02-23T10:03:46.962Z,20.20
2019-02-23T10:06:13.520Z,20.30
2019-02-23T10:08:40.029Z,20.77
2019-02-23T10:11:06.545Z,18.77
2019-02-23T10:13:32.970Z,20.73
2019-02-23T10:15:59.485Z,21.37
2019-02-23T10:18:25.967Z,21.53
2019-02-23T10:20:52.387Z,21.67
2019-02-23T10:23:21.913Z,20.17
2019-02-23T10:25:47.322Z,19.23
2019-02-23T10:28:13.748Z,20.57
2019-02-23T10:30:40.169Z,20.23
2019-02-23T10:33:06.597Z,20.07
2019-02-23T10:35:33.078Z,20.80
2019-02-23T10:37:59.619Z,20.50
2019-02-23T10:40:26.042Z,20.53
2019-02-23T10:42:52.484Z,20.27
2019-02-23T10:45:19.045Z,21.37
2019-02-23T10:47:45.465Z,21.57
2019-02-23T10:50:13.632Z,21.33
2019-02-23T10:52:40.159Z,21.47
2019-02-23T10:55:13.635Z,20.13
2019-02-23T10:57:40.053Z,20.30
2019-02-23T11:00:11.681Z,19.30
2019-02-23T11:02:38.103Z,19.57
2019-02-23T11:05:06.466Z,20.97
2019-02-23T11:07:32.890Z,19.10
2019-02-23T11:09:59.317Z,20.13
2019-02-23T11:12:25.742Z,20.87
2019-02-23T11:14:52.194Z,20.03
2019-02-23T11:17:18.616Z,21.13
2019-02-23T11:19:45.111Z,19.40
2019-02-23T11:22:11.625Z,19.83
2019-02-23T11:24:38.134Z,21.00
2019-02-23T11:27:04.596Z,19.57
2019-02-23T11:29:31.034Z,19.93
2019-02-23T11:31:57.462Z,19.87
2019-02-23T11:34:23.975Z,21.07
2019-02-23T11:36:50.412Z,20.37
2019-02-23T11:39:16.833Z,20.50
2019-02-23T11:41:43.263Z,20.23
2019-02-23T11:44:09.685Z,21.20
2019-02-23T11:46:36.135Z,19.07
2019-02-23T11:49:02.557Z,20.43
2019-02-23T11:51:29.047Z,19.60
2019-02-23T11:53:55.515Z,18.63
2019-02-23T11:56:22.149Z,20.27
2019-02-23T11:58:48.604Z,19.83
2019-02-23T12:01:15.173Z,19.83
2019-02-23T12:03:41.671Z,20.47
2019-02-23T12:06:08.120Z,19.10
2019-02-23T12:08:34.541Z,17.77
2019-02-23T12:11:00.969Z,19.80
2019-02-23T12:13:27.386Z,18.27
2019-02-23T12:15:53.853Z,18.43
2019-02-23T12:18:20.269Z,18.63
2019-02-23T12:20:46.690Z,18.83
2019-02-23T12:23:13.184Z,18.40
2019-02-23T12:25:39.738Z,18.87
2019-02-23T12:28:06.276Z,19.83
2019-02-23T12:30:32.936Z,18.37
2019-02-23T12:32:59.434Z,18.70
2019-02-23T12:35:25.937Z,18.63
2019-02-23T12:37:52.369Z,18.40
2019-02-23T12:40:18.788Z,17.93
2019-02-23T12:42:45.518Z,18.70
2019-02-23T12:45:12.790Z,17.03
2019-02-23T12:47:39.223Z,18.53
2019-02-23T12:50:08.775Z,15.87
2019-02-23T12:52:35.180Z,18.20
2019-02-23T12:55:01.743Z,15.90
2019-02-23T12:57:28.163Z,18.77
2019-02-23T12:59:54.686Z,16.93
2019-02-23T13:02:21.256Z,15.70
2019-02-23T13:04:47.860Z,17.03
2019-02-23T13:07:14.287Z,16.03
2019-02-23T13:09:42.032Z,16.17
2019-02-23T13:12:12.046Z,16.83
2019-02-23T13:14:58.920Z,16.90
2019-02-23T13:17:44.264Z,16.90
2019-02-23T13:20:32.615Z,18.47
2019-02-23T13:23:28.484Z,18.50
2019-02-23T13:26:04.659Z,17.33
2019-02-23T13:28:40.519Z,17.00
2019-02-23T13:31:16.395Z,17.20
2019-02-23T13:34:03.015Z,17.70
2019-02-23T13:36:45.026Z,17.97
2019-02-23T13:39:21.090Z,16.93
2019-02-23T13:41:51.153Z,16.93
2019-02-23T13:44:36.242Z,17.80
2019-02-23T13:47:15.343Z,16.10
2019-02-23T13:50:03.715Z,17.27
2019-02-23T13:52:42.705Z,17.87
2019-02-23T13:55:17.672Z,18.83
2019-02-23T13:57:47.705Z,15.73
2019-02-23T14:00:23.637Z,17.90
2019-02-23T14:02:59.728Z,16.93
2019-02-23T14:05:46.802Z,16.93
2019-02-23T14:08:35.146Z,17.20
2019-02-23T14:11:23.549Z,17.50
2019-02-23T14:13:53.598Z,17.60
2019-02-23T14:16:41.899Z,17.03
2019-02-23T14:19:18.134Z,16.67
2019-02-23T14:22:12.186Z,18.67
2019-02-23T14:24:50.024Z,17.20
2019-02-23T14:27:23.196Z,18.33
2019-02-23T14:29:53.310Z,16.03
2019-02-23T14:32:26.403Z,17.47
2019-02-23T14:35:11.734Z,16.90
2019-02-23T14:37:50.982Z,17.87
2019-02-23T14:40:36.359Z,17.63
2019-02-23T14:43:09.624Z,17.40
2019-02-23T14:45:50.458Z,15.77
2019-02-23T14:48:23.182Z,17.47
2019-02-23T14:51:26.595Z,17.83
2019-02-23T14:53:59.648Z,17.57
2019-02-23T14:56:39.035Z,18.40
2019-02-23T14:59:18.161Z,18.63
2019-02-23T15:01:51.224Z,18.13
2019-02-23T15:04:27.461Z,18.47
2019-02-23T15:07:00.427Z,19.77
2019-02-23T15:09:33.605Z,17.80
2019-02-23T15:12:25.053Z,18.37
2019-02-23T15:14:57.946Z,18.63
2019-02-23T15:18:01.406Z,18.37
2019-02-23T15:20:43.621Z,18.53
2019-02-23T15:23:33.208Z,16.43
2019-02-23T15:26:33.574Z,18.30
2019-02-23T15:29:18.621Z,16.83
2019-02-23T15:32:03.491Z,17.00
2019-02-23T15:34:52.015Z,18.80
2019-02-23T15:37:43.238Z,19.43
2019-02-23T15:40:25.481Z,18.20
2019-02-23T15:43:10.622Z,17.57
2019-02-23T15:45:49.755Z,17.87
2019-02-23T15:48:19.925Z,17.57
2019-02-23T15:50:46.475Z,17.63
2019-02-23T15:53:12.967Z,18.03
2019-02-23T15:55:39.522Z,17.93
2019-02-23T15:58:06.055Z,17.70
2019-02-23T16:00:34.929Z,17.07
2019-02-23T16:03:00.962Z,16.83
2019-02-23T16:05:27.530Z,17.57
2019-02-23T16:07:53.970Z,17.93
2019-02-23T16:10:20.677Z,16.80
2019-02-23T16:12:47.548Z,16.97
2019-02-23T16:15:14.212Z,17.00
2019-02-23T16:17:40.942Z,17.57
2019-02-23T16:20:07.475Z,17.37
2019-02-23T16:22:33.902Z,17.57
2019-02-23T16:25:00.439Z,17.57
2019-02-23T16:27:26.967Z,17.70
2019-02-23T16:29:53.500Z,17.97
2019-02-23T16:32:20.279Z,17.23
2019-02-23T16:34:46.763Z,18.17
2019-02-23T16:37:13.193Z,16.87
2019-02-23T16:39:40.569Z,17.83
2019-02-23T16:42:07.296Z,17.13
2019-02-23T16:44:33.832Z,16.20
2019-02-23T16:47:00.384Z,16.57
2019-02-23T16:49:26.925Z,17.07
2019-02-23T16:51:53.338Z,16.00
2019-02-23T16:54:19.914Z,17.00
2019-02-23T16:56:46.394Z,16.37
2019-02-23T16:59:12.827Z,16.37
2019-02-23T17:01:39.253Z,17.83
2019-02-23T17:04:06.270Z,17.30
2019-02-23T17:06:33.045Z,17.30
2019-02-23T17:08:59.581Z,17.43
2019-02-23T17:11:26.116Z,17.93
2019-02-23T17:13:52.554Z,18.07
2019-02-23T17:16:19.002Z,16.63
2019-02-23T17:18:45.432Z,17.90
2019-02-23T17:21:11.978Z,17.40
2019-02-23T17:23:38.502Z,17.37
2019-02-23T17:26:05.054Z,16.23
2019-02-23T17:28:31.557Z,17.23
2019-02-23T17:30:57.979Z,16.23
2019-02-23T17:33:27.787Z,17.70
2019-02-23T17:35:52.874Z,17.67
2019-02-23T17:38:19.295Z,16.90
2019-02-23T17:40:45.869Z,16.20
2019-02-23T17:43:12.468Z,16.90
2019-02-23T17:45:38.989Z,16.73
2019-02-23T17:48:05.547Z,14.83
2019-02-23T17:50:32.198Z,15.93
2019-02-23T17:52:58.631Z,15.23
2019-02-23T17:55:25.152Z,16.47
2019-02-23T17:57:51.672Z,15.77
2019-02-23T18:00:19.903Z,15.40
2019-02-23T18:02:46.476Z,16.20
2019-02-23T18:05:13.102Z,15.17
2019-02-23T18:07:39.735Z,16.60
2019-02-23T18:10:06.267Z,15.37
2019-02-23T18:12:32.678Z,15.67
2019-02-23T18:14:59.154Z,16.17
2019-02-23T18:17:25.581Z,14.57
2019-02-23T18:19:52.017Z,14.80
2019-02-23T18:22:18.527Z,15.03
2019-02-23T18:24:44.987Z,14.17
2019-02-23T18:27:11.412Z,15.63
2019-02-23T18:29:37.888Z,15.87
2019-02-23T18:32:04.286Z,13.93
2019-02-23T18:34:31.896Z,14.17
2019-02-23T18:36:58.764Z,14.53
2019-02-23T18:39:25.660Z,14.40
2019-02-23T18:41:52.078Z,14.93
2019-02-23T18:44:18.512Z,13.50
2019-02-23T18:46:44.931Z,15.40
2019-02-23T18:49:11.359Z,15.27
2019-02-23T18:51:37.966Z,15.13
2019-02-23T18:54:04.401Z,14.17
2019-02-23T18:56:30.879Z,14.93
2019-02-23T18:58:58.394Z,14.37
2019-02-23T19:01:25.497Z,13.53
2019-02-23T19:03:52.423Z,14.80
2019-02-23T19:06:19.477Z,14.10
2019-02-23T19:08:46.432Z,13.97
2019-02-23T19:11:13.372Z,14.17
2019-02-23T19:13:40.429Z,12.93
2019-02-23T19:16:07.669Z,13.67
2019-02-23T19:18:34.906Z,14.03
2019-02-23T19:21:01.923Z,13.73
2019-02-23T19:23:29.105Z,13.93
2019-02-23T19:25:56.118Z,13.80
2019-02-23T19:28:23.171Z,13.40
2019-02-23T19:30:50.070Z,12.63
2019-02-23T19:33:17.260Z,11.77
2019-02-23T19:35:44.396Z,11.27
2019-02-23T19:38:11.595Z,12.13
2019-02-23T19:40:38.878Z,11.97
2019-02-23T19:43:06.400Z,12.27
2019-02-23T19:45:33.690Z,11.20
2019-02-23T19:48:00.764Z,11.43
2019-02-23T19:50:31.154Z,11.93
2019-02-23T19:52:58.174Z,11.97
2019-02-23T19:55:27.094Z,11.67
2019-02-23T19:57:53.834Z,12.23
2019-02-23T20:00:20.624Z,10.57
2019-02-23T20:02:47.322Z,11.83
2019-02-23T20:05:14.821Z,12.23
2019-02-23T20:07:41.529Z,12.37
2019-02-23T20:10:09.055Z,12.50
2019-02-23T20:12:35.543Z,12.80
2019-02-23T20:15:02.444Z,12.77
2019-02-23T20:17:28.904Z,11.97
2019-02-23T20:19:55.417Z,12.70
2019-02-23T20:22:21.854Z,11.63
2019-02-23T20:24:48.393Z,11.43
2019-02-23T20:27:16.012Z,12.07
2019-02-23T20:29:42.613Z,11.60
2019-02-23T20:32:09.033Z,11.80
2019-02-23T20:34:35.572Z,12.67
2019-02-23T20:37:02.098Z,12.33
2019-02-23T20:39:28.617Z,12.37
2019-02-23T20:41:55.077Z,12.30
2019-02-23T20:44:21.545Z,13.03
2019-02-23T20:46:47.968Z,13.37
2019-02-23T20:49:14.390Z,12.83
2019-02-23T20:51:40.904Z,12.83
2019-02-23T20:54:07.321Z,12.57
2019-02-23T20:56:33.978Z,12.63
2019-02-23T20:59:00.407Z,13.43
2019-02-23T21:01:26.831Z,13.43
2019-02-23T21:03:53.337Z,11.90
2019-02-23T21:06:19.874Z,11.27
2019-02-23T21:08:46.615Z,11.37
2019-02-23T21:11:13.125Z,10.50
2019-02-23T21:13:39.622Z,10.07
2019-02-23T21:16:06.151Z,9.83
2019-02-23T21:18:32.591Z,10.13
2019-02-23T21:20:59.022Z,10.40
2019-02-23T21:23:25.477Z,10.03
2019-02-23T21:25:51.996Z,9.80
2019-02-23T21:28:18.533Z,10.57
2019-02-23T21:30:44.961Z,10.03
2019-02-23T21:33:11.487Z,12.20
2019-02-23T21:35:37.948Z,11.70
2019-02-23T21:38:04.416Z,11.97
2019-02-23T21:40:30.836Z,14.07
2019-02-23T21:42:57.264Z,13.30
2019-02-23T21:45:23.808Z,13.80
2019-02-23T21:47:50.227Z,13.33
2019-02-23T21:50:16.642Z,12.70
2019-02-23T21:52:43.068Z,14.30
2019-02-23T21:55:09.510Z,14.80
2019-02-23T21:57:35.921Z,14.27
2019-02-23T22:00:03.944Z,13.93
2019-02-23T22:02:30.371Z,14.67
2019-02-23T22:04:56.889Z,14.33
2019-02-23T22:07:23.388Z,13.70
2019-02-23T22:09:49.842Z,13.50
2019-02-23T22:12:16.341Z,13.03
2019-02-23T22:14:42.819Z,11.47
2019-02-23T22:17:09.312Z,11.10
2019-02-23T22:19:35.736Z,11.37
2019-02-23T22:22:02.157Z,10.83
2019-02-23T22:24:28.592Z,11.80
2019-02-23T22:26:55.037Z,12.03
2019-02-23T22:29:21.461Z,11.80
2019-02-23T22:31:47.882Z,13.20
2019-02-23T22:34:14.306Z,13.83
2019-02-23T22:36:40.827Z,15.60
2019-02-23T22:39:07.331Z,16.33
2019-02-23T22:41:33.757Z,16.73
2019-02-23T22:44:00.185Z,13.20
2019-02-23T22:46:26.662Z,12.37
2019-02-23T22:48:53.155Z,12.20
2019-02-23T22:51:19.612Z,10.27
2019-02-23T22:53:46.051Z,13.23
2019-02-23T22:56:12.497Z,12.17
2019-02-23T22:58:38.927Z,13.63
2019-02-23T23:01:05.542Z,14.13
2019-02-23T23:03:31.959Z,13.97
2019-02-23T23:05:58.676Z,14.07
2019-02-23T23:08:25.173Z,13.77
2019-02-23T23:10:51.592Z,13.57
2019-02-23T23:13:18.006Z,12.60
2019-02-23T23:15:44.476Z,12.83
2019-02-23T23:18:10.912Z,14.03
2019-02-23T23:20:37.696Z,14.23
2019-02-23T23:23:04.211Z,15.07
2019-02-23T23:25:30.714Z,12.80
2019-02-23T23:27:57.139Z,11.93
2019-02-23T23:30:23.585Z,13.27
2019-02-23T23:32:50.010Z,11.67
2019-02-23T23:35:16.449Z,12.33
2019-02-23T23:37:42.885Z,12.27
2019-02-23T23:40:09.508Z,11.87
2019-02-23T23:42:35.954Z,11.93
2019-02-23T23:45:03.496Z,12.13
2019-02-23T23:47:29.919Z,11.17
2019-02-23T23:49:56.341Z,12.20
2019-02-23T23:52:22.808Z,12.17
2019-02-23T23:54:49.250Z,13.10
2019-02-23T23:57:15.679Z,11.50
2019-02-23T23:59:42.105Z,11.77
